Redruth, United Kingdom
Current Conditions -  °F | °C
As of 9:50 AM on Saturday 29 Nov 2014 (Local Time) from EGDR Reporting Station
Haze Haze  
Wind Chill: 54°   Ceiling: Unl
Heat Index: 54°   Visibility: 4mi
Dew Point: 52°   Wind: 12mph
Humidity: 94%   Direction: 60°ENE
Pressure: 29.74"   Gusts: NA
Location:  50.23°N, 5.23°W
Report Text: EGDR 290950Z 06010KT 6000 BR FEW003 12/11 Q1007 WHT TEMPO 3000 BR FEW003 SCT005 YL01
Loading
Personal Weather Stations






























Interactive Weather Map New forecast layout! Learn more

10-Day Weather Forecast

Advertisements
Track Severe Weather on mobile